Time;durP1;ratioP1;P1;durP2;ratioP2;P2;SDS_P1;SDS_P2;PMS_P1;PMS_P2;Temp;Humidity;BMP_temperature;BMP_pressure;BME280_temperature;BME280_humidity;BME280_pressure;Samples;Min_cycle;Max_cycle;Signal;HPM_P1;HPM_P2
2022/11/10 00:00:12;;;;;;;31.17;20.00;;;;;;;7.77;90.93;101304.88;5069840;28;20115;-67
2022/11/10 00:02:38;;;;;;;33.95;20.65;;;;;;;7.72;91.85;101301.13;5070189;28;20378;-67
2022/11/10 00:05:03;;;;;;;30.17;19.02;;;;;;;7.03;91.67;101171.84;5069308;28;20519;-67
2022/11/10 00:07:29;;;;;;;32.67;19.55;;;;;;;7.80;91.08;101299.03;5070070;28;20036;-68
2022/11/10 00:09:54;;;;;;;31.63;19.10;;;;;;;7.80;90.01;101305.09;5068857;28;20028;-66
2022/11/10 00:12:21;;;;;;;30.52;18.48;;;;;;;7.73;88.44;101293.50;5069398;28;20123;-67
2022/11/10 00:17:34;;;;;;;33.17;20.25;;;;;;;7.37;87.91;101297.25;5070113;28;20051;-67
2022/11/10 00:19:59;;;;;;;31.20;17.98;;;;;;;7.08;88.19;101270.63;5069922;28;20025;-67
2022/11/10 00:22:25;;;;;;;30.00;17.73;;;;;;;7.21;88.40;101291.13;5084174;28;20036;-67
2022/11/10 00:24:50;;;;;;;29.85;17.85;;;;;;;7.25;88.31;101292.22;5069791;28;20025;-67
2022/11/10 00:27:16;;;;;;;24.85;16.83;;;;;;;7.28;88.58;101293.31;5069967;28;20406;-67
2022/11/10 00:29:41;;;;;;;28.60;17.75;;;;;;;7.27;88.85;101288.06;5068514;28;20148;-67
2022/11/10 00:32:07;;;;;;;26.75;16.50;;;;;;;7.25;89.39;101284.50;5069858;28;20024;-67
2022/11/10 00:34:33;;;;;;;24.48;16.42;;;;;;;7.24;89.97;101287.88;5070472;28;20032;-67
2022/11/10 00:36:59;;;;;;;32.53;17.60;;;;;;;7.19;90.05;101269.63;5069869;28;20039;-67
2022/11/10 00:39:24;;;;;;;25.58;16.90;;;;;;;6.56;89.62;101150.09;5069837;28;20060;-67
2022/11/10 00:41:50;;;;;;;24.63;16.98;;;;;;;7.37;89.61;101281.84;5070319;28;20115;-68
2022/11/10 00:44:15;;;;;;;25.73;16.85;;;;;;;7.31;89.36;101271.19;5070259;28;20058;-67
2022/11/10 00:46:41;;;;;;;25.98;15.98;;;;;;;7.13;90.05;101275.25;5070416;28;20030;-67
2022/11/10 00:49:06;;;;;;;27.10;17.40;;;;;;;6.90;91.11;101278.00;5070261;28;20028;-67
2022/11/10 00:51:32;;;;;;;30.90;18.08;;;;;;;6.94;91.81;101269.69;5069713;28;20078;-67
2022/11/10 00:53:57;;;;;;;29.33;17.63;;;;;;;7.03;91.95;101266.84;5070072;28;20036;-67
2022/11/10 00:56:24;;;;;;;23.88;16.65;;;;;;;7.07;91.73;101263.69;5070164;28;20029;-67
2022/11/10 00:58:50;;;;;;;26.30;17.15;;;;;;;7.01;91.16;101268.44;5070227;28;20036;-67
2022/11/10 01:01:17;;;;;;;27.63;17.13;;;;;;;6.99;91.03;101268.34;5069885;28;20094;-67
2022/11/10 01:03:43;;;;;;;29.98;16.73;;;;;;;6.03;91.26;101118.53;5069764;28;20028;-67
2022/11/10 01:06:11;;;;;;;29.50;16.95;;;;;;;6.91;91.35;101267.81;5069628;28;20405;-65
2022/11/10 01:08:38;;;;;;;27.98;16.40;;;;;;;6.73;91.75;101249.56;5069933;28;20039;-68
2022/11/10 01:11:09;;;;;;;30.73;16.48;;;;;;;6.66;91.69;101243.94;5069897;28;20543;-68
2022/11/10 01:13:35;;;;;;;29.42;17.17;;;;;;;6.15;91.61;101141.50;5069800;28;20111;-67
2022/11/10 01:16:19;;;;;;;27.27;17.05;;;;;;;6.90;91.66;101273.78;5069876;28;20036;-67
2022/11/10 01:18:50;;;;;;;26.10;16.20;;;;;;;6.85;92.02;101259.72;5069674;28;20024;-68
2022/11/10 01:21:15;;;;;;;26.05;16.95;;;;;;;6.84;92.25;101268.25;5070621;28;20029;-68
2022/11/10 01:23:41;;;;;;;28.88;17.48;;;;;;;6.82;92.10;101263.78;5073796;28;20510;-67
2022/11/10 01:26:06;;;;;;;23.98;16.95;;;;;;;6.84;91.68;101267.34;5074196;28;20027;-67
2022/11/10 01:28:33;;;;;;;27.60;16.77;;;;;;;6.78;91.37;101244.75;5073916;28;20020;-68
2022/11/10 01:31:02;;;;;;;32.35;17.67;;;;;;;6.85;91.83;101239.19;5072035;28;20034;-68
2022/11/10 01:33:27;;;;;;;26.70;16.80;;;;;;;6.92;90.82;101248.19;5073515;28;20602;-67
2022/11/10 01:35:54;;;;;;;23.33;16.15;;;;;;;6.92;90.36;101251.66;5073519;28;20028;-68
2022/11/10 01:38:21;;;;;;;25.33;17.50;;;;;;;6.94;90.58;101251.72;5073271;28;20037;-68
2022/11/10 01:40:46;;;;;;;29.20;17.27;;;;;;;6.39;90.27;101151.56;5073115;28;20499;-68
2022/11/10 01:43:12;;;;;;;34.63;18.90;;;;;;;6.86;90.00;101238.41;5073295;28;20036;-68
2022/11/10 01:45:43;;;;;;;30.15;19.10;;;;;;;6.26;90.96;101126.81;5073424;28;20157;-68
2022/11/10 01:48:15;;;;;;;31.73;17.98;;;;;;;6.57;91.10;101216.91;5073299;28;20024;-66
2022/11/10 01:50:42;;;;;;;30.05;18.30;;;;;;;6.53;91.41;101238.03;5073084;28;20032;-68
2022/11/10 01:53:21;;;;;;;32.60;18.17;;;;;;;6.60;92.22;101259.81;5073291;28;20017;-67
2022/11/10 01:55:48;;;;;;;30.25;19.17;;;;;;;6.61;92.04;101262.47;5072975;28;20029;-67
2022/11/10 01:58:18;;;;;;;30.45;17.60;;;;;;;6.64;91.58;101264.34;5072872;28;20079;-67
2022/11/10 02:00:44;;;;;;;29.05;17.83;;;;;;;6.68;91.86;101262.88;5073209;28;20386;-68
2022/11/10 02:03:18;;;;;;;28.17;17.10;;;;;;;6.73;91.34;101258.94;5073116;28;20161;-67
2022/11/10 02:05:43;;;;;;;24.52;17.42;;;;;;;6.73;91.26;101266.63;5073058;28;20035;-67
2022/11/10 02:08:14;;;;;;;27.23;16.60;;;;;;;6.72;90.80;101267.44;5073064;28;20402;-67
2022/11/10 02:10:40;;;;;;;29.60;17.20;;;;;;;6.68;90.80;101258.66;5072901;28;20028;-66
2022/11/10 02:13:05;;;;;;;28.88;17.98;;;;;;;6.82;90.26;101254.41;5061522;28;20036;-68
2022/11/10 02:15:31;;;;;;;29.17;17.60;;;;;;;6.82;89.33;101256.97;5069613;28;20028;-68
2022/11/10 02:17:56;;;;;;;27.55;16.20;;;;;;;6.83;88.52;101266.47;5072537;28;20039;-68
2022/11/10 02:20:22;;;;;;;25.77;17.20;;;;;;;5.99;88.88;101144.72;5072539;28;20055;-67
2022/11/10 02:22:48;;;;;;;23.85;17.08;;;;;;;6.53;90.13;101271.38;5071366;28;20035;-67
2022/11/10 02:25:18;;;;;;;26.25;17.13;;;;;;;6.37;91.55;101278.81;5072874;28;20466;-67
2022/11/10 02:27:45;;;;;;;23.95;16.50;;;;;;;6.44;91.90;101271.66;5070223;28;20040;-67
2022/11/10 02:30:11;;;;;;;25.85;17.30;;;;;;;6.39;91.79;101287.50;5072688;28;20033;-67
2022/11/10 02:32:36;;;;;;;26.52;17.25;;;;;;;6.09;92.88;101276.97;5072179;28;20023;-67
2022/11/10 02:35:03;;;;;;;24.90;18.25;;;;;;;5.92;93.20;101238.22;5072622;28;20016;-67
2022/11/10 02:37:28;;;;;;;28.30;17.05;;;;;;;5.93;92.68;101260.50;5070079;28;20582;-67
2022/11/10 02:39:54;;;;;;;37.13;21.67;;;;;;;5.01;93.21;101127.00;5072300;28;20044;-67
2022/11/10 02:42:21;;;;;;;33.00;19.85;;;;;;;5.62;94.40;101289.13;5072696;28;20024;-67
2022/11/10 02:44:46;;;;;;;33.55;19.75;;;;;;;5.43;94.20;101250.19;5072369;28;20032;-67
2022/11/10 02:47:12;;;;;;;28.67;18.45;;;;;;;5.53;94.29;101285.91;5072065;28;20500;-67
2022/11/10 02:49:38;;;;;;;28.63;17.52;;;;;;;5.45;94.55;101287.06;5071810;28;20035;-67
2022/11/10 02:52:03;;;;;;;30.17;17.52;;;;;;;5.44;94.53;101287.84;5072234;28;20021;-67
2022/11/10 02:54:28;;;;;;;27.55;17.08;;;;;;;5.39;94.38;101302.88;5071801;28;20047;-67
2022/11/10 02:56:54;;;;;;;29.02;18.15;;;;;;;5.33;94.91;101284.50;5072059;28;20043;-67
2022/11/10 02:59:19;;;;;;;25.83;18.02;;;;;;;5.35;95.19;101296.63;5072164;28;20067;-67
2022/11/10 03:01:45;;;;;;;26.52;18.10;;;;;;;5.49;94.83;101307.84;5071892;28;20481;-67
2022/11/10 03:04:10;;;;;;;28.38;18.05;;;;;;;5.61;94.24;101302.72;5072361;28;20051;-67
2022/11/10 03:06:35;;;;;;;27.65;17.48;;;;;;;5.59;94.14;101299.16;5071493;28;20025;-67
2022/11/10 03:09:01;;;;;;;31.00;17.17;;;;;;;5.63;92.31;101301.16;5071582;28;20115;-67
2022/11/10 03:11:26;;;;;;;27.85;16.25;;;;;;;5.55;90.92;101292.03;5069383;28;20032;-67
2022/11/10 03:13:52;;;;;;;27.02;16.90;;;;;;;5.50;90.46;101301.06;5072014;28;20028;-67
2022/11/10 03:16:17;;;;;;;27.02;16.42;;;;;;;5.46;90.20;101297.41;5070341;28;20523;-67
2022/11/10 03:18:42;;;;;;;25.10;15.90;;;;;;;5.44;91.04;101287.84;5071674;28;20062;-67
2022/11/10 03:21:08;;;;;;;28.90;16.38;;;;;;;5.54;90.85;101303.06;5071338;28;20123;-66
2022/11/10 03:23:34;;;;;;;26.05;16.55;;;;;;;5.46;90.85;101307.66;5071130;28;20458;-67
2022/11/10 03:26:03;;;;;;;24.58;16.35;;;;;;;5.41;91.35;101302.97;5071219;28;20517;-67
2022/11/10 03:28:29;;;;;;;27.80;16.42;;;;;;;5.39;91.36;101299.41;5071521;28;20040;-67
2022/11/10 03:30:54;;;;;;;28.85;17.63;;;;;;;5.38;91.00;101300.19;5070868;28;20055;-67
2022/11/10 03:33:20;;;;;;;31.48;17.67;;;;;;;5.40;91.18;101304.66;5071378;28;20029;-67
2022/11/10 03:35:45;;;;;;;28.35;16.63;;;;;;;5.47;91.25;101311.09;5071157;28;20497;-67
2022/11/10 03:38:10;;;;;;;24.30;15.88;;;;;;;5.39;91.54;101314.78;5070658;28;20507;-66
2022/11/10 03:40:36;;;;;;;26.38;17.02;;;;;;;4.37;92.28;101165.06;5070810;28;20456;-66
2022/11/10 03:43:01;;;;;;;28.00;17.73;;;;;;;4.53;93.19;101190.09;5071059;28;20029;-67
2022/11/10 03:45:27;;;;;;;28.38;17.98;;;;;;;4.45;92.99;101168.19;5070472;28;20029;-66
2022/11/10 03:47:52;;;;;;;28.63;17.42;;;;;;;5.41;92.66;101316.69;5071434;28;20133;-66
2022/11/10 03:50:19;;;;;;;26.35;16.70;;;;;;;5.43;92.70;101309.09;5071045;28;20032;-66
2022/11/10 03:52:45;;;;;;;27.25;16.45;;;;;;;5.40;93.28;101308.91;5070749;28;20130;-66
2022/11/10 03:55:16;;;;;;;34.22;17.60;;;;;;;5.34;92.53;101282.03;5070646;28;20028;-66
2022/11/10 03:57:42;;;;;;;26.40;19.40;;;;;;;5.57;92.65;101322.88;5070699;28;20024;-66
2022/11/10 04:00:08;;;;;;;37.88;20.98;;;;;;;5.60;93.25;101311.19;5070891;28;20017;-66
2022/11/10 04:02:35;;;;;;;31.05;19.25;;;;;;;5.43;93.57;101273.25;5070731;28;20028;-66
2022/11/10 04:10:29;;;;;;;28.55;17.75;;;;;;;4.76;92.75;101176.44;5070440;28;20137;-67
2022/11/10 04:15:41;;;;;;;29.30;17.02;;;;;;;5.23;90.68;101275.28;5070330;28;20032;-66
2022/11/10 04:18:19;;;;;;;29.58;16.25;;;;;;;5.29;89.75;101315.78;5070085;28;20028;-66
2022/11/10 04:20:46;;;;;;;32.10;16.95;;;;;;;5.00;89.72;101322.25;5070405;28;20020;-66
2022/11/10 04:23:27;;;;;;;27.63;16.58;;;;;;;4.95;89.78;101303.13;5070293;28;20692;-66
2022/11/10 04:28:48;;;;;;;27.77;16.50;;;;;;;4.90;90.13;101322.34;5069995;28;20592;-66
2022/11/10 04:31:15;;;;;;;25.63;15.70;;;;;;;4.81;90.47;101317.44;5070426;28;20029;-66
2022/11/10 04:33:42;;;;;;;31.58;17.10;;;;;;;4.72;90.29;101283.53;5070429;28;20032;-66
2022/11/10 04:36:10;;;;;;;29.42;18.27;;;;;;;4.62;90.87;101275.19;5069972;28;20024;-66
2022/11/10 04:38:36;;;;;;;29.75;18.85;;;;;;;4.67;91.89;101289.19;5069869;28;20044;-66
2022/11/10 04:41:02;;;;;;;30.05;18.85;;;;;;;4.92;93.08;101324.25;5070140;28;20104;-66
2022/11/10 04:43:28;;;;;;;35.88;21.65;;;;;;;4.97;93.96;101325.50;5070457;28;20124;-67
2022/11/10 04:45:53;;;;;;;36.92;19.90;;;;;;;4.98;94.07;101327.25;5069957;28;20100;-67
2022/11/10 04:48:19;;;;;;;57.67;24.45;;;;;;;4.64;97.75;101332.44;5070113;28;20028;-67
2022/11/10 04:50:45;;;;;;;64.60;23.42;;;;;;;4.64;98.83;101334.13;5068956;28;20032;-67
2022/11/10 04:53:10;;;;;;;85.00;23.55;;;;;;;4.69;99.53;101340.47;5080140;28;20040;-66
2022/11/10 04:55:40;;;;;;;56.88;21.23;;;;;;;3.89;99.74;101211.00;5071515;28;20099;-67
2022/11/10 04:58:06;;;;;;;63.58;25.17;;;;;;;4.61;100.00;101349.22;5074189;28;20027;-67
2022/11/10 05:00:32;;;;;;;62.15;22.48;;;;;;;4.49;100.00;101323.63;5074111;28;20099;-67
2022/11/10 05:02:59;;;;;;;54.13;21.63;;;;;;;4.56;100.00;101350.53;5074150;28;20032;-67
2022/11/10 05:05:24;;;;;;;63.67;22.83;;;;;;;4.27;100.00;101344.13;5073843;28;20398;-67
2022/11/10 05:07:50;;;;;;;75.80;24.08;;;;;;;4.15;100.00;101310.81;5073878;28;20025;-67
2022/11/10 05:10:15;;;;;;;71.78;24.65;;;;;;;4.38;100.00;101346.69;5073635;28;20089;-66
2022/11/10 05:12:41;;;;;;;90.80;25.75;;;;;;;4.34;100.00;101343.81;5074080;28;20028;-67
2022/11/10 05:15:07;;;;;;;60.38;24.90;;;;;;;4.44;100.00;101350.53;5073856;28;20021;-66
2022/11/10 05:17:32;;;;;;;59.92;23.85;;;;;;;4.40;100.00;101349.38;5073862;28;20025;-67
2022/11/10 05:19:57;;;;;;;79.63;23.15;;;;;;;3.98;100.00;101267.00;5073650;28;20414;-67
2022/11/10 05:22:23;;;;;;;55.92;24.85;;;;;;;4.60;100.00;101350.91;5073520;28;20036;-67
2022/11/10 05:24:48;;;;;;;101.18;28.10;;;;;;;4.59;100.00;101350.78;5073718;28;20032;-67
2022/11/10 05:27:13;;;;;;;74.95;28.00;;;;;;;4.67;100.00;101370.13;5073555;28;20025;-66
2022/11/10 05:29:39;;;;;;;72.60;24.30;;;;;;;4.77;100.00;101367.50;5073493;28;20029;-67
2022/11/10 05:32:04;;;;;;;82.00;25.00;;;;;;;4.80;100.00;101367.72;5073444;28;20020;-67
2022/11/10 05:34:30;;;;;;;77.72;26.65;;;;;;;3.95;100.00;101228.47;5073578;28;20109;-67
2022/11/10 05:36:55;;;;;;;65.22;24.83;;;;;;;4.76;100.00;101364.81;5073103;28;20107;-67
2022/11/10 05:39:21;;;;;;;80.25;24.73;;;;;;;4.77;100.00;101366.59;5072806;28;20148;-67
2022/11/10 05:41:46;;;;;;;97.93;24.42;;;;;;;4.61;100.00;101346.66;5087678;28;20047;-68
2022/11/10 05:44:11;;;;;;;100.45;28.33;;;;;;;4.78;100.00;101371.81;5073439;28;20028;-68
2022/11/10 05:46:37;;;;;;;83.85;25.38;;;;;;;4.66;100.00;101335.09;5072571;28;20017;-68
2022/11/10 05:49:02;;;;;;;82.75;26.27;;;;;;;4.90;100.00;101376.06;5073075;28;20017;-68
2022/11/10 05:51:28;;;;;;;93.18;24.13;;;;;;;4.90;100.00;101374.44;5071561;28;20029;-68
2022/11/10 05:53:53;;;;;;;67.50;24.80;;;;;;;4.11;100.00;101247.50;5073146;28;20028;-68
2022/11/10 05:56:19;;;;;;;79.00;24.35;;;;;;;4.81;100.00;101366.03;5073201;28;20451;-68
2022/11/10 05:58:45;;;;;;;58.97;23.67;;;;;;;4.86;100.00;101374.97;5073383;28;20016;-68
2022/11/10 06:01:10;;;;;;;123.85;26.27;;;;;;;4.90;100.00;101391.44;5073404;28;20154;-68
2022/11/10 06:03:35;;;;;;;84.05;25.13;;;;;;;4.97;100.00;101397.13;5072919;28;20021;-68
2022/11/10 06:06:01;;;;;;;82.47;24.23;;;;;;;5.10;100.00;101396.38;5073312;28;20020;-68
2022/11/10 06:08:26;;;;;;;96.15;24.80;;;;;;;5.20;100.00;101400.50;5071816;28;20081;-68
2022/11/10 06:10:53;;;;;;;60.72;22.45;;;;;;;4.52;100.00;101267.59;5072922;28;20032;-68
2022/11/10 06:13:19;;;;;;;42.33;22.30;;;;;;;5.07;100.00;101400.38;5073152;28;20086;-68
2022/11/10 06:15:44;;;;;;;51.80;25.40;;;;;;;4.73;100.00;101377.38;5072247;28;20025;-68
2022/11/10 06:18:10;;;;;;;64.47;24.63;;;;;;;4.83;100.00;101392.66;5077084;28;20025;-67
2022/11/10 06:20:35;;;;;;;79.15;26.30;;;;;;;4.90;100.00;101405.13;5073560;28;20036;-69
2022/11/10 06:23:01;;;;;;;67.35;26.02;;;;;;;4.47;100.00;101343.06;5071980;28;20035;-68
2022/11/10 06:25:28;;;;;;;64.60;25.45;;;;;;;4.85;100.00;101414.13;5072406;28;20032;-69
2022/11/10 06:27:54;;;;;;;58.13;24.65;;;;;;;4.38;100.00;101322.81;5072426;28;20032;-69
2022/11/10 06:30:19;;;;;;;53.50;24.42;;;;;;;4.91;100.00;101411.13;5073174;28;20062;-67
2022/11/10 06:32:45;;;;;;;47.40;21.15;;;;;;;4.88;100.00;101411.78;5073586;28;20656;-66
2022/11/10 06:35:11;;;;;;;53.45;24.20;;;;;;;4.02;100.00;101257.91;5066859;28;20032;-67
2022/11/10 06:37:38;;;;;;;71.88;25.38;;;;;;;5.01;100.00;101417.06;5067380;28;20043;-67
2022/11/10 06:40:05;;;;;;;71.78;22.10;;;;;;;4.90;100.00;101386.31;5066418;28;20091;-66
2022/11/10 06:42:31;;;;;;;51.10;24.15;;;;;;;5.10;100.00;101413.41;5070951;28;20475;-64
2022/11/10 06:44:57;;;;;;;79.45;24.83;;;;;;;5.24;100.00;101427.22;5072189;28;20020;-64
2022/11/10 06:47:22;;;;;;;115.55;25.05;;;;;;;5.39;100.00;101417.22;5069716;28;20060;-65
2022/11/10 06:49:48;;;;;;;78.72;25.38;;;;;;;5.42;100.00;101413.22;5071346;28;20043;-66
2022/11/10 06:52:13;;;;;;;77.55;24.67;;;;;;;5.59;100.00;101419.53;5071916;28;20025;-66
2022/11/10 06:54:38;;;;;;;64.88;26.55;;;;;;;5.55;100.00;101393.63;5071770;28;20031;-65
2022/11/10 06:57:04;;;;;;;70.55;23.15;;;;;;;5.59;100.00;101393.91;5071938;28;20029;-66
2022/11/10 06:59:29;;;;;;;64.97;24.58;;;;;;;5.73;100.00;101411.97;5071770;28;20486;-66
2022/11/10 07:01:55;;;;;;;48.85;21.38;;;;;;;5.79;100.00;101414.97;5071538;28;20050;-66
2022/11/10 07:04:20;;;;;;;50.65;22.40;;;;;;;5.85;100.00;101428.22;5071743;28;20024;-67
2022/11/10 07:06:46;;;;;;;31.75;18.48;;;;;;;5.91;100.00;101426.09;5071390;28;20024;-67
2022/11/10 07:09:12;;;;;;;35.80;18.25;;;;;;;5.92;100.00;101426.97;5071416;28;20522;-67
2022/11/10 07:11:37;;;;;;;31.10;18.60;;;;;;;6.03;100.00;101422.66;5071547;28;20063;-66
2022/11/10 07:14:03;;;;;;;35.50;19.92;;;;;;;5.96;100.00;101429.00;5071290;28;20027;-66
2022/11/10 07:16:28;;;;;;;39.72;20.55;;;;;;;6.04;100.00;101424.44;5071391;28;20470;-68
2022/11/10 07:18:54;;;;;;;36.35;20.40;;;;;;;5.96;100.00;101417.06;5070249;28;20028;-70
2022/11/10 07:21:19;;;;;;;31.70;17.48;;;;;;;5.64;100.00;101410.50;5071198;28;20028;-66
2022/11/10 07:23:45;;;;;;;53.10;16.67;;;;;;;5.79;100.00;101432.91;5071538;28;20032;-65
2022/11/10 07:26:11;;;;;;;49.70;19.23;;;;;;;5.85;100.00;101428.22;5071494;28;20024;-65
2022/11/10 07:28:36;;;;;;;53.70;19.80;;;;;;;5.99;100.00;101437.81;5071599;28;20078;-71
2022/11/10 07:31:02;;;;;;;38.50;21.17;;;;;;;6.16;100.00;101450.94;5070878;28;20035;-63
2022/11/10 07:33:28;;;;;;;38.95;21.20;;;;;;;6.17;100.00;101445.03;5071321;28;20028;-65
2022/11/10 07:35:59;;;;;;;37.08;22.33;;;;;;;6.13;100.00;101410.59;5068347;28;20044;-66
2022/11/10 07:38:24;;;;;;;37.53;22.40;;;;;;;6.40;100.00;101433.78;5071455;28;20079;-66
2022/11/10 07:40:52;;;;;;;37.88;21.35;;;;;;;6.37;100.00;101414.72;5071233;28;20393;-66
2022/11/10 07:43:22;;;;;;;53.53;23.08;;;;;;;6.53;100.00;101435.56;5071098;28;20028;-66
2022/11/10 07:45:51;;;;;;;41.95;23.98;;;;;;;6.68;100.00;101437.38;5070856;28;20025;-66
2022/11/10 07:48:17;;;;;;;52.55;22.77;;;;;;;6.71;100.00;101432.47;5070700;28;20032;-66
2022/11/10 07:50:43;;;;;;;40.03;20.77;;;;;;;6.88;100.00;101443.84;5070730;28;20489;-66
2022/11/10 07:53:11;;;;;;;39.92;21.77;;;;;;;6.86;100.00;101432.63;5071260;28;20024;-66
2022/11/10 07:55:38;;;;;;;39.65;22.05;;;;;;;7.08;100.00;101442.66;5070930;28;20119;-66
2022/11/10 07:58:04;;;;;;;42.25;22.80;;;;;;;7.05;100.00;101417.66;5070762;28;20082;-66
2022/11/10 08:00:29;;;;;;;40.55;22.67;;;;;;;7.10;100.00;101441.06;5070592;28;20040;-66
2022/11/10 08:03:20;;;;;;;45.13;22.67;;;;;;;7.07;100.00;101454.56;5070136;28;20027;-69
2022/11/10 08:05:46;;;;;;;50.85;23.80;;;;;;;7.06;100.00;101439.06;5057305;28;20083;-66
2022/11/10 08:08:12;;;;;;;46.15;23.05;;;;;;;7.17;100.00;101437.22;5071046;28;20056;-66
2022/11/10 08:10:39;;;;;;;45.80;23.17;;;;;;;6.59;100.00;101320.53;5070505;28;20471;-66
2022/11/10 09:50:05;;;;;;;46.60;26.90;;;;;;;10.39;100.00;101428.88;5032892;28;20057;-64
2022/11/10 09:52:33;;;;;;;47.40;25.05;;;;;;;10.47;100.00;101414.69;5053720;28;20391;-66
2022/11/10 09:55:25;;;;;;;39.87;25.00;;;;;;;10.64;100.00;101401.78;5053643;28;20087;-67
2022/11/10 10:00:32;;;;;;;40.67;25.52;;;;;;;11.05;100.00;101420.19;5010084;28;20511;-71
2022/11/10 10:03:04;;;;;;;42.83;26.25;;;;;;;11.23;100.00;101410.78;5008819;28;20026;-70
2022/11/10 10:05:43;;;;;;;40.05;26.00;;;;;;;11.43;100.00;101409.16;5013042;28;20481;-71
2022/11/10 10:08:38;;;;;;;39.95;24.05;;;;;;;11.59;100.00;101394.38;5011655;28;20541;-71
2022/11/10 10:11:15;;;;;;;38.75;24.23;;;;;;;11.78;100.00;101394.44;5012310;28;20022;-70
2022/11/10 10:14:18;;;;;;;38.13;25.30;;;;;;;11.91;100.00;101402.78;5012435;28;20030;-71
2022/11/10 10:17:03;;;;;;;40.50;26.67;;;;;;;11.91;100.00;101359.69;4971124;28;20031;-71
2022/11/10 10:19:57;;;;;;;36.72;23.48;;;;;;;11.96;100.00;101336.63;4970643;28;20110;-71
2022/11/10 10:22:58;;;;;;;40.22;25.35;;;;;;;12.35;100.00;101382.34;4968750;28;20042;-71
2022/11/10 10:25:25;;;;;;;33.35;24.65;;;;;;;12.36;100.00;101389.28;4894625;29;20056;-72
2022/11/10 10:28:26;;;;;;;39.08;26.05;;;;;;;12.45;100.00;101387.13;4894283;29;20033;-71
2022/11/10 10:30:53;;;;;;;33.65;24.02;;;;;;;12.49;99.53;101372.63;4875517;29;20036;-71
2022/11/10 10:33:22;;;;;;;35.05;23.48;;;;;;;12.50;99.07;101358.81;4875290;29;20469;-71
2022/11/10 10:35:49;;;;;;;37.65;24.48;;;;;;;12.38;98.27;101302.22;4874940;29;20564;-71
2022/11/10 10:38:21;;;;;;;34.25;23.67;;;;;;;12.91;98.15;101364.88;4875133;29;20033;-71
2022/11/10 10:40:49;;;;;;;34.10;23.45;;;;;;;13.03;96.90;101357.59;4875591;29;20095;-72
2022/11/10 10:43:14;;;;;;;34.25;24.00;;;;;;;13.14;96.83;101358.06;4875541;29;20100;-71
2022/11/10 10:45:41;;;;;;;32.40;22.10;;;;;;;13.26;95.95;101362.88;4875868;29;20427;-71
2022/11/10 10:48:27;;;;;;;35.55;24.38;;;;;;;13.36;95.46;101352.03;4875396;29;20037;-70
2022/11/10 10:50:52;;;;;;;31.65;22.63;;;;;;;13.40;95.48;101334.91;4885284;29;20044;-71
2022/11/10 10:53:21;;;;;;;33.63;23.05;;;;;;;13.62;95.23;101346.13;4894345;29;20569;-70
2022/11/10 10:56:13;;;;;;;38.75;24.08;;;;;;;13.12;94.70;101243.03;4894260;29;20033;-70
2022/11/10 10:58:54;;;;;;;34.03;22.48;;;;;;;13.86;94.25;101364.34;4893655;29;20056;-70
2022/11/10 11:01:28;;;;;;;34.30;23.92;;;;;;;13.98;93.80;101351.84;4906124;28;20053;-70
2022/11/10 11:03:54;;;;;;;27.73;20.85;;;;;;;13.97;92.18;101331.88;4973278;28;20634;-71
2022/11/10 11:06:24;;;;;;;33.38;21.88;;;;;;;14.14;92.89;101353.25;4990367;28;20130;-70
2022/11/10 11:09:05;;;;;;;31.75;22.13;;;;;;;14.16;92.80;101345.53;5011457;28;20060;-71
2022/11/10 11:11:36;;;;;;;26.27;20.27;;;;;;;14.15;92.17;101343.78;5011276;28;20096;-71
2022/11/10 11:14:17;;;;;;;30.35;21.38;;;;;;;14.20;91.63;101344.81;5011328;28;20030;-70
2022/11/10 11:17:00;;;;;;;32.83;21.85;;;;;;;14.29;90.98;101344.25;5011159;28;20036;-70
2022/11/10 11:19:32;;;;;;;33.85;20.13;;;;;;;14.32;90.78;101342.66;5010668;28;20034;-70
2022/11/10 11:22:37;;;;;;;30.33;19.75;;;;;;;14.41;90.65;101336.91;5010992;28;20021;-70
2022/11/10 11:25:23;;;;;;;29.45;18.35;;;;;;;13.89;88.41;101234.66;4942305;28;20546;-71
2022/11/10 11:28:19;;;;;;;27.67;19.52;;;;;;;14.49;89.08;101331.97;4949769;29;20023;-70
2022/11/10 11:31:09;;;;;;;34.20;21.13;;;;;;;14.45;89.98;101330.09;4950457;29;20583;-70
2022/11/10 11:33:40;;;;;;;30.10;20.35;;;;;;;14.29;90.15;101332.16;4949957;29;20137;-70
2022/11/10 11:36:18;;;;;;;27.67;20.27;;;;;;;14.14;90.53;101329.00;4950058;29;20070;-70
2022/11/10 11:38:50;;;;;;;30.67;23.52;;;;;;;14.18;90.56;101323.09;4949374;29;20039;-71
2022/11/10 11:41:40;;;;;;;27.63;19.63;;;;;;;14.31;90.51;101327.03;4949860;29;20095;-70
2022/11/10 11:44:22;;;;;;;37.03;25.27;;;;;;;14.43;90.24;101323.97;4949904;29;20091;-70
2022/11/10 11:47:02;;;;;;;30.75;23.98;;;;;;;14.56;89.58;101326.16;4949725;29;20118;-70
2022/11/10 11:49:50;;;;;;;28.48;20.92;;;;;;;14.59;88.65;101315.84;4948216;29;20583;-70
2022/11/10 11:52:25;;;;;;;39.35;27.83;;;;;;;14.77;88.24;101323.44;4931749;29;20028;-70
2022/11/10 11:55:09;;;;;;;30.90;20.08;;;;;;;14.88;87.45;101324.69;4948833;29;20055;-70
2022/11/10 11:57:52;;;;;;;36.67;25.95;;;;;;;14.92;87.72;101317.00;4949315;29;20098;-70
2022/11/10 12:00:18;;;;;;;37.33;22.30;;;;;;;14.99;87.38;101316.34;4949816;28;20505;-70
2022/11/10 12:03:20;;;;;;;32.03;20.48;;;;;;;14.94;87.76;101311.00;5006712;28;20081;-72
2022/11/10 12:06:04;;;;;;;32.95;22.80;;;;;;;14.96;88.38;101314.53;5005686;28;20050;-71
2022/11/10 12:08:38;;;;;;;29.02;20.50;;;;;;;15.00;87.94;101311.22;5003641;28;20026;-72
2022/11/10 12:11:24;;;;;;;30.48;21.58;;;;;;;14.97;88.32;101311.09;5008961;28;20043;-71
2022/11/10 12:14:15;;;;;;;26.27;19.30;;;;;;;14.98;88.30;101312.88;5010724;28;20022;-70
2022/11/10 12:16:48;;;;;;;34.22;20.92;;;;;;;14.91;87.75;101308.28;5010266;28;20487;-71
2022/11/10 12:19:38;;;;;;;35.10;20.80;;;;;;;15.03;87.42;101311.28;5010738;28;20022;-71
2022/11/10 12:22:11;;;;;;;36.35;20.83;;;;;;;14.93;86.45;101293.63;5010150;28;20044;-71
2022/11/10 12:24:55;;;;;;;45.90;21.92;;;;;;;15.06;87.18;101309.63;5007234;28;20395;-70
2022/11/10 12:27:45;;;;;;;38.80;20.90;;;;;;;15.04;87.16;101306.97;5008279;28;20091;-70
2022/11/10 12:30:15;;;;;;;40.10;20.95;;;;;;;14.93;87.60;101288.44;5009514;28;20033;-70
2022/11/10 12:32:45;;;;;;;29.65;21.08;;;;;;;15.01;88.02;101301.69;5010604;28;20492;-70
2022/11/10 12:35:22;;;;;;;34.92;20.90;;;;;;;14.95;87.75;101301.47;5010274;28;20069;-70
2022/11/10 12:38:11;;;;;;;30.88;20.63;;;;;;;14.98;87.23;101305.06;5010137;28;20054;-70
2022/11/10 12:40:42;;;;;;;27.40;20.60;;;;;;;15.01;87.59;101312.09;5010583;28;20084;-71
2022/11/10 12:43:24;;;;;;;29.05;18.70;;;;;;;14.81;87.36;101285.44;4976444;28;20503;-70
2022/11/10 12:45:58;;;;;;;31.05;20.60;;;;;;;14.67;87.64;101257.28;5010452;28;20045;-70
2022/11/10 12:48:29;;;;;;;30.45;20.67;;;;;;;14.31;87.19;101192.84;5010575;28;20080;-70
2022/11/10 12:51:07;;;;;;;28.75;19.95;;;;;;;14.91;87.65;101290.09;5009214;28;20028;-71
2022/11/10 12:53:37;;;;;;;30.67;20.30;;;;;;;14.87;87.57;101290.84;5010514;28;20034;-71
2022/11/10 12:56:11;;;;;;;24.20;18.35;;;;;;;15.00;86.82;101306.00;5010893;28;20022;-69
2022/11/10 12:58:37;;;;;;;24.60;18.40;;;;;;;14.95;86.73;101302.34;5009122;28;20061;-70
2022/11/10 13:01:10;;;;;;;28.23;19.42;;;;;;;15.02;86.75;101306.94;5010563;28;20038;-72
2022/11/10 13:03:37;;;;;;;25.65;19.88;;;;;;;15.06;86.81;101309.63;5010312;28;20034;-70
2022/11/10 13:06:04;;;;;;;31.10;20.17;;;;;;;14.89;86.93;101263.16;5010525;28;20026;-72
2022/11/10 13:08:43;;;;;;;26.23;19.77;;;;;;;15.10;87.18;101306.28;5010392;28;20034;-72
2022/11/10 13:11:11;;;;;;;26.60;18.45;;;;;;;15.11;85.64;101305.47;5010366;28;20036;-71
2022/11/10 13:14:01;;;;;;;22.05;18.65;;;;;;;15.14;85.56;101316.84;5009949;28;20053;-71
2022/11/10 13:16:43;;;;;;;23.10;18.15;;;;;;;14.95;85.84;101289.34;4969625;28;20097;-70